createdAt,value
2018-02-27T00:06:17.628Z,55.02
2018-02-27T00:15:54.147Z,53.53
2018-02-27T00:25:35.103Z,54.28
2018-02-27T00:35:03.351Z,55.87
2018-02-27T00:44:39.849Z,55.90
2018-02-27T00:54:16.194Z,56.64
2018-02-27T01:03:53.446Z,56.64
2018-02-27T01:13:28.887Z,59.94
2018-02-27T01:23:09.629Z,59.41
2018-02-27T01:32:39.222Z,59.65
2018-02-27T01:42:12.728Z,61.65
2018-02-27T01:51:49.029Z,61.15
2018-02-27T02:01:26.102Z,61.46
2018-02-27T02:11:03.402Z,62.66
2018-02-27T02:20:38.237Z,62.02
2018-02-27T02:30:14.745Z,62.24
2018-02-27T02:39:51.513Z,61.70
2018-02-27T02:49:27.150Z,63.51
2018-02-27T02:59:08.277Z,63.41
2018-02-27T03:08:44.792Z,63.20
2018-02-27T03:18:26.152Z,62.66
2018-02-27T03:27:55.379Z,63.12
2018-02-27T03:37:30.701Z,63.94
2018-02-27T03:47:07.684Z,63.30
2018-02-27T03:56:44.867Z,63.84
2018-02-27T04:06:25.746Z,64.50
2018-02-27T04:15:53.666Z,63.51
2018-02-27T04:25:30.393Z,64.07
2018-02-27T04:35:06.894Z,66.10
2018-02-27T04:44:43.519Z,65.03
2018-02-27T04:54:20.432Z,64.29
2018-02-27T05:03:57.308Z,64.50
2018-02-27T05:13:33.709Z,64.83
2018-02-27T05:23:10.128Z,65.78
2018-02-27T05:32:46.643Z,64.72
2018-02-27T05:42:23.505Z,63.97
2018-02-27T05:52:03.325Z,64.50
2018-02-27T06:01:31.369Z,64.72
2018-02-27T06:11:08.185Z,63.12
2018-02-27T06:20:44.943Z,63.43
2018-02-27T06:30:22.073Z,63.43
2018-02-27T06:39:58.451Z,62.34
2018-02-27T06:49:35.252Z,63.09
2018-02-27T06:59:12.276Z,65.41
2018-02-27T07:08:48.969Z,66.36
2018-02-27T07:18:26.228Z,65.37
2018-02-27T07:28:02.619Z,65.66
2018-02-27T07:37:39.331Z,61.83
2018-02-27T07:47:16.499Z,60.93
2018-02-27T07:56:53.184Z,61.51
2018-02-27T08:06:29.665Z,62.31
2018-02-27T08:16:06.126Z,64.30
2018-02-27T08:25:43.059Z,61.35
2018-02-27T08:35:19.085Z,62.81
2018-02-27T08:44:55.168Z,63.67
2018-02-27T08:54:31.579Z,63.60
2018-02-27T09:04:08.422Z,62.01
2018-02-27T09:13:44.802Z,63.37
2018-02-27T09:23:21.731Z,60.02
2018-02-27T09:32:58.616Z,56.49
2018-02-27T09:42:35.520Z,56.13
2018-02-27T09:52:13.189Z,54.68
2018-02-27T10:01:49.866Z,54.04
2018-02-27T10:11:26.674Z,51.22
2018-02-27T10:21:04.157Z,51.36
2018-02-27T10:30:41.227Z,51.62
2018-02-27T10:40:17.167Z,53.28
2018-02-27T10:49:53.367Z,53.28
2018-02-27T10:59:30.514Z,48.91
2018-02-27T11:09:05.481Z,51.33
2018-02-27T11:18:42.322Z,45.97
2018-02-27T11:28:18.392Z,48.13
2018-02-27T11:37:53.050Z,50.64
2018-02-27T11:47:28.044Z,48.45
2018-02-27T11:57:04.841Z,48.01
2018-02-27T12:06:39.832Z,48.22
2018-02-27T12:16:15.111Z,52.06
2018-02-27T12:25:50.755Z,49.44
2018-02-27T12:35:26.089Z,57.90
2018-02-27T12:45:06.416Z,60.09
2018-02-27T12:54:34.378Z,61.07
2018-02-27T13:04:29.263Z,73.11
2018-02-27T13:14:23.799Z,76.33
2018-02-27T13:24:17.830Z,79.94
2018-02-27T13:34:14.723Z,80.60
2018-02-27T13:44:02.991Z,79.59
2018-02-27T13:53:55.870Z,81.77
2018-02-27T14:03:47.787Z,82.36
2018-02-27T14:13:37.531Z,82.89
2018-02-27T14:23:33.559Z,81.90
2018-02-27T14:33:28.801Z,81.56
2018-02-27T14:43:25.747Z,80.79
2018-02-27T14:53:10.878Z,81.41
2018-02-27T15:03:07.288Z,80.36
2018-02-27T15:13:02.978Z,81.21
2018-02-27T15:22:58.569Z,84.30
2018-02-27T15:32:56.138Z,85.53
2018-02-27T15:42:52.811Z,86.55
2018-02-27T15:52:49.181Z,87.69
2018-02-27T16:02:45.484Z,87.94
2018-02-27T16:12:39.214Z,87.34
2018-02-27T16:22:35.124Z,86.60
2018-02-27T16:32:31.033Z,85.27
2018-02-27T16:42:22.490Z,87.20
2018-02-27T16:52:18.996Z,86.33
2018-02-27T17:02:05.593Z,84.42
2018-02-27T17:12:01.507Z,84.95
2018-02-27T17:21:55.071Z,85.52
2018-02-27T17:31:49.696Z,86.90
2018-02-27T17:41:36.463Z,87.00
2018-02-27T17:51:30.802Z,88.52
2018-02-27T18:01:24.605Z,79.07
2018-02-27T18:11:02.399Z,69.17
2018-02-27T18:20:38.182Z,64.05
2018-02-27T18:30:14.537Z,67.49
2018-02-27T18:40:10.299Z,69.43
2018-02-27T18:49:44.287Z,64.11
2018-02-27T18:59:24.970Z,63.04
2018-02-27T19:08:53.393Z,62.00
2018-02-27T19:18:33.232Z,69.32
2018-02-27T19:28:05.816Z,62.35
2018-02-27T19:37:33.966Z,62.59
2018-02-27T19:47:10.606Z,63.26
2018-02-27T19:56:46.707Z,62.40
2018-02-27T20:06:41.636Z,68.72
2018-02-27T20:16:34.976Z,68.43
2018-02-27T20:26:21.677Z,72.40
2018-02-27T20:35:57.901Z,67.86
2018-02-27T20:45:53.437Z,71.48
2018-02-27T20:55:47.273Z,72.65
2018-02-27T21:05:41.125Z,75.13
2018-02-27T21:15:37.541Z,77.23
2018-02-27T21:25:33.517Z,79.32
2018-02-27T21:35:25.675Z,79.07
2018-02-27T21:45:17.765Z,79.82
2018-02-27T21:55:13.673Z,83.39
2018-02-27T22:05:09.272Z,81.96
2018-02-27T22:15:03.174Z,83.71
2018-02-27T22:25:01.264Z,85.10
2018-02-27T22:34:57.907Z,84.61
2018-02-27T22:44:52.184Z,85.64
2018-02-27T22:54:50.690Z,85.25
2018-02-27T23:04:49.128Z,84.61
2018-02-27T23:14:46.286Z,84.92
2018-02-27T23:24:42.855Z,84.61
2018-02-27T23:34:41.009Z,82.75
2018-02-27T23:44:36.868Z,84.47
2018-02-27T23:54:33.834Z,84.11
